Time;durP1;ratioP1;P1;durP2;ratioP2;P2;SDS_P1;SDS_P2;PMS_P1;PMS_P2;Temp;Humidity;BMP_temperature;BMP_pressure;BME280_temperature;BME280_humidity;BME280_pressure;Samples;Min_cycle;Max_cycle;Signal;HPM_P1;HPM_P2
2022/12/17 13:06:53;;;;;;;7.00;6.40;;;;;;;;;;1622234;86;21129;-52
2022/12/17 13:09:22;;;;;;;13.27;9.20;;;;;;;;;;1620246;86;23426;-54
2022/12/17 13:11:57;;;;;;;13.60;9.37;;;;;;;;;;1620653;86;21067;-53
2022/12/17 13:14:26;;;;;;;13.23;9.70;;;;;;;;;;1575585;86;21082;-52
2022/12/17 13:16:54;;;;;;;9.43;7.43;;;;;;;;;;1636155;85;21049;-53
2022/12/17 13:19:34;;;;;;;17.00;11.40;;;;;;;;;;1649902;85;21058;-52
2022/12/17 13:22:19;;;;;;;7.50;6.30;;;;;;;;;;1653495;85;21800;-51
2022/12/17 13:24:46;;;;;;;;;;;;;;;;;;1628650;86;20999;-52
2022/12/17 13:27:37;;;;;;;6.53;5.67;;;;;;;;;;1617625;86;20168;-51
2022/12/17 13:30:30;;;;;;;9.73;6.67;;;;;;;;;;1621437;86;21059;-52
2022/12/17 13:33:21;;;;;;;6.87;6.10;;;;;;;;;;1620407;86;22115;-50
2022/12/17 13:35:53;;;;;;;7.67;6.90;;;;;;;;;;1632417;86;21722;-51
2022/12/17 13:38:41;;;;;;;5.73;5.07;;;;;;;;;;1662999;82;21547;-51
2022/12/17 13:41:19;;;;;;;8.73;6.87;;;;;;;;;;1691839;82;21011;-51
2022/12/17 13:43:51;;;;;;;10.67;7.33;;;;;;;;;;1690526;82;21015;-52
2022/12/17 13:46:26;;;;;;;12.87;8.37;;;;;;;;;;1693752;83;21050;-51
2022/12/17 13:48:53;;;;;;;;;;;;;;;;;;1693032;83;21729;-52
2022/12/17 13:51:20;;;;;;;10.40;8.03;;;;;;;;;;1690474;83;20173;-51
2022/12/17 13:54:00;;;;;;;9.33;7.73;;;;;;;;;;1687861;83;21542;-52
2022/12/17 13:56:32;;;;;;;8.70;7.70;;;;;;;;;;1691101;82;21098;-51
2022/12/17 13:59:01;;;;;;;16.63;13.43;;;;;;;;;;1689717;82;21070;-51
2022/12/17 14:01:28;;;;;;;30.63;22.57;;;;;;;;;;1688038;82;21906;-51
2022/12/17 14:03:58;;;;;;;35.40;24.77;;;;;;;;;;1690264;83;21574;-52
2022/12/17 14:06:35;;;;;;;34.90;19.63;;;;;;;;;;1689581;83;21051;-52
2022/12/17 14:09:02;;;;;;;19.27;12.10;;;;;;;;;;1692140;83;21049;-53
2022/12/17 14:14:20;;;;;;;9.53;7.10;;;;;;;;;;1687618;82;21497;-53
2022/12/17 14:16:46;;;;;;;9.00;7.97;;;;;;;;;;1679420;83;21058;-52
2022/12/17 14:19:12;;;;;;;10.70;8.17;;;;;;;;;;1689389;83;21056;-54
2022/12/17 14:21:40;;;;;;;10.87;8.37;;;;;;;;;;1691993;83;21030;-54
2022/12/17 14:24:06;;;;;;;6.90;6.17;;;;;;;;;;1687126;82;21068;-53
2022/12/17 14:26:32;;;;;;;11.40;8.07;;;;;;;;;;1686690;83;21790;-53
2022/12/17 14:28:58;;;;;;;18.67;11.90;;;;;;;;;;1688191;83;21061;-53
2022/12/17 14:31:29;;;;;;;8.97;7.17;;;;;;;;;;1689893;83;21085;-53
2022/12/17 14:34:06;;;;;;;12.13;8.13;;;;;;;;;;1687978;83;21287;-52
2022/12/17 14:36:33;;;;;;;19.37;12.97;;;;;;;;;;1690579;83;21062;-51
2022/12/17 14:39:01;;;;;;;20.27;13.27;;;;;;;;;;1689846;83;21437;-50
2022/12/17 14:44:17;;;;;;;;;;;;;;;;;;1695351;82;21054;-52
2022/12/17 14:46:43;;;;;;;17.40;11.67;;;;;;;;;;1688300;82;21214;-51
2022/12/17 14:49:18;;;;;;;15.67;11.47;;;;;;;;;;1690967;82;21070;-50
2022/12/17 14:54:05;;;;;;;21.37;14.80;;;;;;;;;;1791568;78;22479;-50
2022/12/17 14:56:32;;;;;;;26.00;17.57;;;;;;;;;;1768220;79;22313;-51
2022/12/17 14:58:58;;;;;;;23.87;16.40;;;;;;;;;;1769285;79;21881;-49
2022/12/17 15:01:24;;;;;;;35.30;19.40;;;;;;;;;;1770699;79;21089;-51
2022/12/17 15:03:50;;;;;;;36.73;22.40;;;;;;;;;;1772952;79;20959;-54
2022/12/17 15:06:17;;;;;;;29.00;19.77;;;;;;;;;;1773084;79;21006;-53
2022/12/17 15:08:45;;;;;;;35.57;21.30;;;;;;;;;;1770661;80;21037;-52
2022/12/17 15:11:14;;;;;;;32.37;20.73;;;;;;;;;;1775671;79;21808;-51
2022/12/17 15:13:40;;;;;;;32.73;21.23;;;;;;;;;;1771619;79;20974;-52
2022/12/17 15:16:06;;;;;;;27.60;19.20;;;;;;;;;;1773997;79;21080;-51
2022/12/17 15:18:33;;;;;;;31.83;21.10;;;;;;;;;;1773290;79;21411;-52
2022/12/17 15:21:00;;;;;;;25.87;17.13;;;;;;;;;;1768586;79;21532;-53
2022/12/17 15:23:27;;;;;;;26.00;17.67;;;;;;;;;;1773866;79;21829;-51
2022/12/17 15:25:53;;;;;;;19.50;13.83;;;;;;;;;;1764970;79;21036;-52
2022/12/17 15:28:19;;;;;;;18.70;13.90;;;;;;;;;;1763133;80;21052;-52
2022/12/17 15:30:46;;;;;;;23.70;15.53;;;;;;;;;;1768861;79;21148;-51
2022/12/17 15:33:12;;;;;;;26.53;17.87;;;;;;;;;;1773523;79;21096;-53
2022/12/17 15:35:38;;;;;;;30.23;20.30;;;;;;;;;;1763730;79;21821;-51
2022/12/17 15:38:05;;;;;;;29.83;19.33;;;;;;;;;;1739053;81;21081;-52
2022/12/17 15:40:31;;;;;;;28.60;20.63;;;;;;;;;;1736776;81;21080;-53
2022/12/17 15:43:10;;;;;;;27.07;18.70;;;;;;;;;;1739969;81;21180;-52
2022/12/17 15:45:42;;;;;;;25.60;17.33;;;;;;;;;;1737907;81;21120;-52
2022/12/17 15:48:09;;;;;;;20.10;14.37;;;;;;;;;;1731224;80;23130;-53
2022/12/17 15:50:35;;;;;;;19.13;12.83;;;;;;;;;;1741832;80;21533;-52
2022/12/17 15:53:01;;;;;;;14.63;10.30;;;;;;;;;;1741992;80;21116;-54
2022/12/17 15:55:28;;;;;;;14.57;10.10;;;;;;;;;;1731660;81;21084;-54
2022/12/17 15:57:54;;;;;;;9.43;6.20;;;;;;;;;;1732811;80;21039;-53
2022/12/17 16:00:20;;;;;;;9.63;7.37;;;;;;;;;;1731395;81;21827;-52
2022/12/17 16:02:47;;;;;;;8.60;5.70;;;;;;;;;;1733623;81;21076;-53
2022/12/17 16:05:15;;;;;;;4.43;4.03;;;;;;;;;;1733661;81;21502;-52
2022/12/17 16:07:44;;;;;;;3.77;3.47;;;;;;;;;;1728658;81;21629;-53
2022/12/17 16:10:10;;;;;;;4.83;3.60;;;;;;;;;;1736054;81;21104;-51
2022/12/17 16:12:37;;;;;;;5.30;4.80;;;;;;;;;;1730870;81;21463;-52
2022/12/17 16:15:04;;;;;;;3.03;2.70;;;;;;;;;;1733704;81;21697;-52
2022/12/17 16:17:31;;;;;;;4.10;2.20;;;;;;;;;;1737753;81;22210;-51
2022/12/17 16:19:57;;;;;;;2.73;2.10;;;;;;;;;;1734029;81;21078;-52
2022/12/17 16:22:23;;;;;;;3.73;2.57;;;;;;;;;;1733177;81;21092;-52
2022/12/17 16:24:51;;;;;;;4.73;3.20;;;;;;;;;;1735028;81;21513;-53
2022/12/17 16:27:17;;;;;;;6.73;3.47;;;;;;;;;;1729815;81;20982;-52
2022/12/17 16:29:45;;;;;;;4.80;4.03;;;;;;;;;;1731311;81;21116;-53
2022/12/17 16:32:11;;;;;;;6.80;5.60;;;;;;;;;;1726208;81;21724;-52
2022/12/17 16:34:38;;;;;;;8.03;4.57;;;;;;;;;;1733960;81;21053;-52
2022/12/17 16:37:06;;;;;;;6.80;6.20;;;;;;;;;;1733450;81;21843;-53
2022/12/17 16:39:33;;;;;;;5.30;4.80;;;;;;;;;;1730563;81;21065;-52
2022/12/17 16:41:59;;;;;;;5.77;4.33;;;;;;;;;;1735734;81;21058;-53
2022/12/17 16:44:25;;;;;;;3.53;3.30;;;;;;;;;;1731977;81;21094;-52
2022/12/17 16:46:52;;;;;;;3.97;3.33;;;;;;;;;;1734936;81;21081;-54
2022/12/17 16:49:20;;;;;;;2.90;2.70;;;;;;;;;;1729611;81;21837;-53
2022/12/17 16:51:48;;;;;;;3.47;3.17;;;;;;;;;;1732147;81;21037;-53
2022/12/17 16:54:16;;;;;;;2.87;2.53;;;;;;;;;;1732066;82;21044;-53
2022/12/17 16:56:42;;;;;;;3.20;2.13;;;;;;;;;;1729174;82;21072;-50
2022/12/17 16:59:09;;;;;;;2.43;2.20;;;;;;;;;;1727760;81;20972;-51
2022/12/17 17:01:35;;;;;;;2.57;2.37;;;;;;;;;;1726349;81;21818;-51
2022/12/17 17:04:03;;;;;;;1.60;1.50;;;;;;;;;;1694907;82;21396;-50
2022/12/17 17:06:29;;;;;;;2.00;1.30;;;;;;;;;;1722884;82;21022;-52
2022/12/17 17:08:56;;;;;;;1.83;1.00;;;;;;;;;;1728597;82;21505;-50
2022/12/17 17:11:23;;;;;;;1.10;1.00;;;;;;;;;;1727458;82;21037;-51
2022/12/17 17:13:51;;;;;;;1.10;1.00;;;;;;;;;;1720958;82;22333;-51
2022/12/17 17:16:18;;;;;;;1.50;1.20;;;;;;;;;;1724486;82;22433;-49
2022/12/17 17:18:44;;;;;;;1.43;0.93;;;;;;;;;;1721919;82;21507;-51
2022/12/17 17:21:22;;;;;;;1.33;1.00;;;;;;;;;;1725267;81;21514;-52
2022/12/17 17:23:52;;;;;;;2.30;0.97;;;;;;;;;;1721561;82;21081;-49
2022/12/17 17:26:18;;;;;;;1.10;0.80;;;;;;;;;;1724530;82;22408;-50
2022/12/17 17:28:45;;;;;;;0.90;0.80;;;;;;;;;;1722409;82;21082;-50
2022/12/17 17:31:11;;;;;;;1.00;0.80;;;;;;;;;;1727454;82;21136;-51
2022/12/17 17:33:39;;;;;;;0.93;0.80;;;;;;;;;;1727301;82;21056;-49
2022/12/17 17:36:08;;;;;;;0.90;0.80;;;;;;;;;;1731470;82;21539;-50
2022/12/17 17:38:35;;;;;;;1.43;0.80;;;;;;;;;;1727338;82;22526;-51
2022/12/17 17:41:01;;;;;;;0.77;0.60;;;;;;;;;;1727765;82;21595;-51
2022/12/17 17:43:28;;;;;;;0.80;0.60;;;;;;;;;;1728883;82;21002;-52
2022/12/17 17:46:05;;;;;;;0.70;0.60;;;;;;;;;;1725217;82;21054;-51
2022/12/17 17:48:32;;;;;;;0.60;0.50;;;;;;;;;;1713783;82;21030;-51
2022/12/17 17:51:07;;;;;;;1.07;0.47;;;;;;;;;;1731092;82;21812;-50
2022/12/17 17:53:33;;;;;;;0.57;0.50;;;;;;;;;;1729091;81;20971;-53
2022/12/17 17:56:13;;;;;;;0.30;0.30;;;;;;;;;;1734957;81;21435;-52
2022/12/17 17:58:38;;;;;;;0.40;0.40;;;;;;;;;;1734215;81;21054;-51
2022/12/17 18:01:10;;;;;;;3.57;0.47;;;;;;;;;;1736233;81;21017;-50
2022/12/17 18:03:36;;;;;;;0.70;0.50;;;;;;;;;;1735390;81;21800;-51
2022/12/17 18:06:04;;;;;;;1.37;0.40;;;;;;;;;;1740392;80;20967;-52
2022/12/17 18:08:30;;;;;;;0.53;0.30;;;;;;;;;;1736346;81;20982;-52
2022/12/17 18:10:57;;;;;;;0.50;0.43;;;;;;;;;;1736349;81;20991;-51
2022/12/17 18:16:08;;;;;;;0.70;0.40;;;;;;;;;;1730649;80;21760;-51
2022/12/17 18:18:34;;;;;;;0.73;0.40;;;;;;;;;;1731896;81;22185;-50
2022/12/17 18:21:09;;;;;;;0.40;0.33;;;;;;;;;;1731251;81;21106;-51
2022/12/17 18:23:35;;;;;;;0.50;0.30;;;;;;;;;;1735291;80;21013;-52
2022/12/17 18:26:09;;;;;;;0.70;0.40;;;;;;;;;;1730853;81;21131;-51
2022/12/17 18:28:36;;;;;;;0.93;0.30;;;;;;;;;;1732131;80;21814;-51
2022/12/17 18:31:09;;;;;;;0.30;0.20;;;;;;;;;;1737504;80;21132;-53
2022/12/17 18:33:36;;;;;;;0.40;0.30;;;;;;;;;;1726260;81;21037;-51
2022/12/17 18:36:08;;;;;;;0.60;0.30;;;;;;;;;;1727211;81;21190;-52
2022/12/17 18:38:34;;;;;;;0.50;0.30;;;;;;;;;;1734383;80;21050;-51
2022/12/17 18:43:21;;;;;;;0.60;0.40;;;;;;;;;;1725899;81;21779;-52
2022/12/17 18:43:33;;;;;;;0.30;0.27;;;;;;;;;;1736134;81;21053;-51
2022/12/17 18:45:59;;;;;;;0.83;0.30;;;;;;;;;;1727420;81;21052;-56
2022/12/17 18:48:25;;;;;;;0.60;0.30;;;;;;;;;;1685505;81;21153;-53
2022/12/17 18:50:52;;;;;;;0.40;0.30;;;;;;;;;;1728228;81;21179;-53
2022/12/17 18:53:18;;;;;;;0.40;0.30;;;;;;;;;;1733737;81;21802;-53
2022/12/17 19:00:57;;;;;;;0.67;0.40;;;;;;;;;;1691849;83;21121;-58
2022/12/17 19:03:24;;;;;;;0.40;0.30;;;;;;;;;;1694865;82;22020;-59
2022/12/17 19:05:50;;;;;;;0.80;0.40;;;;;;;;;;1694057;82;22232;-58
2022/12/17 19:08:16;;;;;;;0.90;0.40;;;;;;;;;;1692541;83;21046;-55
2022/12/17 19:10:42;;;;;;;1.13;0.30;;;;;;;;;;1694204;82;21695;-55
2022/12/17 19:13:08;;;;;;;0.40;0.30;;;;;;;;;;1694058;82;21529;-59
2022/12/17 19:15:34;;;;;;;0.47;0.27;;;;;;;;;;1694756;82;22119;-57
2022/12/17 19:18:01;;;;;;;0.40;0.30;;;;;;;;;;1692509;82;22931;-58
2022/12/17 19:20:27;;;;;;;0.93;0.30;;;;;;;;;;1696769;82;21093;-57
2022/12/17 19:22:53;;;;;;;0.30;0.20;;;;;;;;;;1693797;82;21061;-59
2022/12/17 19:25:19;;;;;;;0.50;0.20;;;;;;;;;;1693994;82;21666;-57
2022/12/17 19:27:45;;;;;;;0.60;0.40;;;;;;;;;;1696810;82;21801;-58
2022/12/17 19:30:11;;;;;;;1.20;0.23;;;;;;;;;;1691577;82;21364;-59
2022/12/17 19:32:38;;;;;;;0.37;0.30;;;;;;;;;;1700349;82;21046;-60
2022/12/17 19:35:04;;;;;;;0.50;0.20;;;;;;;;;;1693693;83;21547;-60
2022/12/17 19:37:30;;;;;;;1.03;0.30;;;;;;;;;;1697561;82;21094;-60
2022/12/17 19:39:57;;;;;;;0.43;0.30;;;;;;;;;;1689827;82;21825;-59
2022/12/17 19:42:23;;;;;;;0.40;0.30;;;;;;;;;;1686324;82;21141;-58
2022/12/17 19:44:53;;;;;;;0.70;0.30;;;;;;;;;;1689538;82;21176;-56
2022/12/17 19:47:21;;;;;;;0.50;0.30;;;;;;;;;;1689564;82;21264;-57
2022/12/17 19:49:48;;;;;;;0.50;0.30;;;;;;;;;;1694268;82;21101;-58
2022/12/17 19:52:14;;;;;;;0.77;0.40;;;;;;;;;;1695669;82;21372;-58
2022/12/17 19:54:40;;;;;;;0.83;0.33;;;;;;;;;;1691826;82;21100;-60
2022/12/17 19:57:06;;;;;;;0.60;0.40;;;;;;;;;;1701893;82;21060;-58
2022/12/17 19:59:33;;;;;;;0.90;0.40;;;;;;;;;;1705966;82;21101;-60
2022/12/17 20:02:02;;;;;;;0.70;0.40;;;;;;;;;;1698407;82;21455;-58
2022/12/17 20:04:29;;;;;;;0.40;0.30;;;;;;;;;;1666342;84;21031;-60
2022/12/17 20:06:56;;;;;;;0.43;0.30;;;;;;;;;;1670157;84;21035;-57
2022/12/17 20:09:22;;;;;;;0.40;0.37;;;;;;;;;;1667005;84;21688;-58
2022/12/17 20:11:48;;;;;;;0.30;0.30;;;;;;;;;;1641177;85;21627;-58
2022/12/17 20:14:19;;;;;;;0.53;0.30;;;;;;;;;;1663754;84;21514;-57
2022/12/17 20:16:56;;;;;;;0.30;0.27;;;;;;;;;;1630930;86;21777;-59
2022/12/17 20:19:29;;;;;;;0.47;0.27;;;;;;;;;;1638429;85;21454;-58
2022/12/17 20:21:55;;;;;;;0.30;0.20;;;;;;;;;;1626353;86;22021;-60
2022/12/17 20:24:21;;;;;;;0.43;0.37;;;;;;;;;;1660428;84;21078;-57
2022/12/17 20:26:49;;;;;;;0.30;0.20;;;;;;;;;;1663736;84;21069;-56
2022/12/17 20:29:15;;;;;;;0.50;0.30;;;;;;;;;;1662055;84;21798;-60
2022/12/17 20:31:41;;;;;;;0.50;0.30;;;;;;;;;;1661698;84;21399;-58
2022/12/17 20:34:08;;;;;;;0.30;0.30;;;;;;;;;;1661510;84;21470;-59
2022/12/17 20:36:35;;;;;;;0.40;0.30;;;;;;;;;;1666714;84;20963;-57
2022/12/17 20:39:01;;;;;;;0.20;0.20;;;;;;;;;;1664238;84;21016;-58
2022/12/17 20:41:28;;;;;;;0.30;0.30;;;;;;;;;;1662659;84;23223;-59
2022/12/17 20:43:54;;;;;;;0.33;0.30;;;;;;;;;;1662485;84;20984;-57
2022/12/17 20:46:21;;;;;;;0.40;0.40;;;;;;;;;;1663157;84;20981;-55
2022/12/17 20:48:48;;;;;;;0.40;0.40;;;;;;;;;;1639001;85;21010;-55
2022/12/17 20:51:19;;;;;;;0.50;0.40;;;;;;;;;;1661671;84;20985;-58
2022/12/17 20:53:46;;;;;;;0.57;0.40;;;;;;;;;;1662026;84;21794;-58
2022/12/17 20:56:14;;;;;;;0.50;0.40;;;;;;;;;;1659454;84;21058;-58
2022/12/17 20:58:40;;;;;;;0.50;0.40;;;;;;;;;;1660442;84;21097;-58
2022/12/17 21:01:15;;;;;;;1.00;0.43;;;;;;;;;;1636216;86;21622;-59
2022/12/17 21:03:41;;;;;;;0.78;0.70;;;;;;;;;;1643997;85;21027;-58
2022/12/17 21:06:10;;;;;;;0.77;0.50;;;;;;;;;;1633132;86;21908;-59
2022/12/17 21:08:37;;;;;;;0.60;0.50;;;;;;;;;;1638827;86;21529;-60
2022/12/17 21:11:05;;;;;;;1.27;0.60;;;;;;;;;;1668150;83;21067;-59
2022/12/17 21:13:32;;;;;;;0.70;0.60;;;;;;;;;;1671737;83;21034;-58
2022/12/17 21:16:00;;;;;;;0.90;0.70;;;;;;;;;;1665320;83;21012;-58
2022/12/17 21:18:27;;;;;;;1.87;0.70;;;;;;;;;;1637756;85;21753;-59
2022/12/17 21:20:58;;;;;;;1.30;1.00;;;;;;;;;;1644968;85;21566;-58
2022/12/17 21:23:24;;;;;;;1.30;0.80;;;;;;;;;;1634767;85;21066;-59
2022/12/17 21:26:07;;;;;;;1.40;1.30;;;;;;;;;;1668159;83;21524;-57
2022/12/17 21:28:35;;;;;;;1.27;0.80;;;;;;;;;;1640878;85;21486;-57
2022/12/17 21:31:01;;;;;;;1.50;0.80;;;;;;;;;;1661039;84;22454;-60
2022/12/17 21:33:27;;;;;;;1.27;0.93;;;;;;;;;;1667482;84;21508;-56
2022/12/17 21:36:01;;;;;;;1.20;0.90;;;;;;;;;;1667099;83;21035;-57
2022/12/17 21:38:28;;;;;;;;;;;;;;;;;;1674917;84;21093;-58
2022/12/17 21:40:55;;;;;;;2.27;0.80;;;;;;;;;;1671246;83;20897;-58
2022/12/17 21:45:05;;;;;;;1.30;0.93;;;;;;;;;;1790812;78;27310;-57
2022/12/17 21:47:32;;;;;;;1.70;1.50;;;;;;;;;;1773279;79;21008;-57
2022/12/17 21:49:58;;;;;;;1.90;1.70;;;;;;;;;;1777620;79;21797;-57
2022/12/17 21:52:25;;;;;;;1.60;1.40;;;;;;;;;;1775910;79;21331;-58
2022/12/17 21:54:51;;;;;;;2.30;2.10;;;;;;;;;;1772301;79;21065;-60
2022/12/17 21:57:17;;;;;;;3.10;1.73;;;;;;;;;;1775059;78;21052;-57
2022/12/17 21:59:43;;;;;;;4.23;2.43;;;;;;;;;;1774307;78;21523;-57
2022/12/17 22:02:09;;;;;;;3.10;2.10;;;;;;;;;;1773555;78;21842;-60
2022/12/17 22:04:36;;;;;;;2.07;1.87;;;;;;;;;;1774911;78;21084;-61
2022/12/17 22:07:02;;;;;;;1.93;1.50;;;;;;;;;;1772948;78;21041;-57
2022/12/17 22:09:28;;;;;;;1.83;1.57;;;;;;;;;;1771808;78;21100;-60
2022/12/17 22:14:01;;;;;;;2.80;2.00;;;;;;;;;;1769668;78;21467;-58
2022/12/17 22:14:24;;;;;;;2.47;1.97;;;;;;;;;;1769517;78;21841;-57
2022/12/17 22:16:51;;;;;;;2.23;1.67;;;;;;;;;;1770954;78;21045;-57
2022/12/17 22:19:19;;;;;;;2.67;1.87;;;;;;;;;;1777150;78;21056;-58
2022/12/17 22:21:46;;;;;;;2.10;1.53;;;;;;;;;;1769383;78;20982;-60
2022/12/17 22:24:15;;;;;;;2.27;1.53;;;;;;;;;;1768951;78;21061;-58
2022/12/17 22:26:42;;;;;;;2.30;1.60;;;;;;;;;;1775197;78;21806;-58
2022/12/17 22:29:08;;;;;;;2.30;1.77;;;;;;;;;;1772813;78;21220;-59
2022/12/17 22:34:19;;;;;;;;;;;;;;;;;;1776195;78;21333;-56
2022/12/17 22:36:45;;;;;;;4.47;1.90;;;;;;;;;;1767853;78;22256;-57
2022/12/17 22:39:12;;;;;;;3.30;2.07;;;;;;;;;;1771642;78;21331;-57
2022/12/17 22:44:23;;;;;;;4.05;3.47;;;;;;;;;;1770938;79;21530;-57
2022/12/17 22:49:20;;;;;;;6.77;5.03;;;;;;;;;;1774395;78;27751;-57
2022/12/17 22:51:46;;;;;;;5.67;4.63;;;;;;;;;;1739846;80;21067;-58
2022/12/17 22:54:12;;;;;;;7.03;5.47;;;;;;;;;;1740078;80;22486;-55
2022/12/17 22:56:40;;;;;;;6.33;4.33;;;;;;;;;;1740483;80;21597;-55
2022/12/17 22:59:06;;;;;;;6.13;4.13;;;;;;;;;;1718413;81;21063;-57
2022/12/17 23:01:33;;;;;;;7.17;5.23;;;;;;;;;;1726992;81;21125;-56
2022/12/17 23:03:59;;;;;;;6.70;6.00;;;;;;;;;;1717897;81;21167;-59
2022/12/17 23:06:26;;;;;;;6.23;4.87;;;;;;;;;;1710820;81;21874;-55
2022/12/17 23:08:52;;;;;;;7.93;5.73;;;;;;;;;;1717110;81;21045;-55
2022/12/17 23:11:20;;;;;;;8.27;5.43;;;;;;;;;;1721925;81;21148;-58
2022/12/17 23:13:46;;;;;;;7.40;6.17;;;;;;;;;;1720745;81;21068;-58
2022/12/17 23:16:13;;;;;;;8.60;6.43;;;;;;;;;;1712055;81;21111;-57
2022/12/17 23:18:39;;;;;;;9.63;6.87;;;;;;;;;;1723080;81;21957;-59
2022/12/17 23:21:15;;;;;;;6.63;5.43;;;;;;;;;;1723298;81;21112;-57
2022/12/17 23:23:42;;;;;;;8.87;6.40;;;;;;;;;;1707065;81;21076;-59
2022/12/17 23:26:09;;;;;;;10.17;5.17;;;;;;;;;;1719055;81;21061;-56
2022/12/17 23:28:35;;;;;;;8.47;4.97;;;;;;;;;;1724873;81;21085;-58
2022/12/17 23:31:09;;;;;;;8.93;6.10;;;;;;;;;;1719794;81;23196;-55
2022/12/17 23:33:37;;;;;;;7.27;5.43;;;;;;;;;;1722793;81;21067;-56
2022/12/17 23:36:05;;;;;;;7.73;5.73;;;;;;;;;;1716496;81;21469;-57
2022/12/17 23:38:31;;;;;;;8.70;5.40;;;;;;;;;;1720715;81;21045;-59
2022/12/17 23:41:04;;;;;;;9.00;6.33;;;;;;;;;;1717475;81;21145;-58
2022/12/17 23:43:31;;;;;;;8.70;5.60;;;;;;;;;;1717781;81;21941;-56
2022/12/17 23:45:58;;;;;;;9.20;5.73;;;;;;;;;;1726274;81;21051;-59
2022/12/17 23:48:26;;;;;;;10.67;6.87;;;;;;;;;;1721899;81;21323;-56
2022/12/17 23:50:52;;;;;;;10.73;7.93;;;;;;;;;;1711912;82;21049;-56
2022/12/17 23:53:18;;;;;;;9.80;6.20;;;;;;;;;;1719145;81;21049;-56
2022/12/17 23:55:44;;;;;;;10.00;7.33;;;;;;;;;;1712609;81;23670;-58
2022/12/17 23:58:10;;;;;;;10.33;7.10;;;;;;;;;;1713533;81;21419;-57
